Time;durP1;ratioP1;P1;durP2;ratioP2;P2;SDS_P1;SDS_P2;PMS_P1;PMS_P2;Temp;Humidity;BMP_temperature;BMP_pressure;BME280_temperature;BME280_humidity;BME280_pressure;Samples;Min_cycle;Max_cycle;Signal;HPM_P1;HPM_P2
2022/06/02 00:01:25;;;;;;;11.75;5.28;;;;;;;17.30;100.00;97857.13;5053505;28;20029;-79
2022/06/02 00:04:05;;;;;;;8.23;5.37;;;;;;;17.23;100.00;97856.91;5053518;28;20773;-77
2022/06/02 00:07:00;;;;;;;13.10;5.47;;;;;;;17.20;100.00;97871.41;5052628;28;20306;-76
2022/06/02 00:09:56;;;;;;;10.23;5.82;;;;;;;17.18;100.00;97854.34;5031642;28;20048;-76
2022/06/02 00:12:24;;;;;;;8.48;6.43;;;;;;;17.26;100.00;97853.47;5034501;28;20048;-78
2022/06/02 00:15:14;;;;;;;9.73;5.20;;;;;;;17.25;100.00;97846.31;5053044;28;20037;-77
2022/06/02 00:17:58;;;;;;;11.25;5.78;;;;;;;17.20;100.00;97847.31;5051743;28;20029;-78
2022/06/02 00:20:38;;;;;;;8.80;5.20;;;;;;;17.12;100.00;97846.28;5051979;28;20506;-77
2022/06/02 00:23:16;;;;;;;8.50;5.53;;;;;;;17.15;100.00;97847.53;5053013;28;20485;-79
2022/06/02 00:26:00;;;;;;;9.05;5.32;;;;;;;17.16;100.00;97845.59;5052783;28;20040;-78
2022/06/02 00:28:31;;;;;;;8.43;5.95;;;;;;;17.17;100.00;97847.19;5052764;28;20021;-77
2022/06/02 00:31:10;;;;;;;11.50;6.00;;;;;;;17.16;100.00;97851.13;5052733;28;20033;-78
2022/06/02 00:33:58;;;;;;;9.05;5.07;;;;;;;17.17;100.00;97852.72;5052987;28;20143;-79
2022/06/02 00:36:37;;;;;;;14.85;5.80;;;;;;;17.12;100.00;97849.03;5052520;28;20025;-78
2022/06/02 00:39:03;;;;;;;9.70;5.47;;;;;;;17.14;100.00;97849.50;5052778;28;20028;-78
2022/06/02 00:41:43;;;;;;;12.98;5.50;;;;;;;17.10;100.00;97856.06;5034307;28;20017;-78
2022/06/02 00:44:29;;;;;;;8.90;5.40;;;;;;;17.13;100.00;97866.44;5052662;28;20072;-78
2022/06/02 00:47:02;;;;;;;11.73;5.53;;;;;;;17.17;100.00;97870.09;5052718;28;20033;-80
2022/06/02 00:49:49;;;;;;;11.65;5.53;;;;;;;17.26;100.00;97861.75;5052553;28;20025;-77
2022/06/02 00:52:27;;;;;;;9.75;4.63;;;;;;;17.24;100.00;97864.03;5052231;28;20111;-79
2022/06/02 00:58:22;;;;;;;9.40;5.03;;;;;;;17.18;100.00;97855.16;5052513;28;20039;-77
2022/06/02 01:00:55;;;;;;;8.88;5.15;;;;;;;17.13;100.00;97875.50;5034209;28;20024;-79
2022/06/02 01:03:23;;;;;;;11.85;4.97;;;;;;;17.12;100.00;97873.91;5034524;28;20029;-80
2022/06/02 01:06:19;;;;;;;10.05;5.25;;;;;;;17.20;100.00;97879.69;5051638;28;20052;-78
2022/06/02 01:09:08;;;;;;;10.43;5.10;;;;;;;17.19;100.00;97887.19;5051831;28;20060;-79
2022/06/02 01:11:48;;;;;;;16.50;5.80;;;;;;;17.06;100.00;97894.63;5051438;28;20029;-77
2022/06/02 01:14:54;;;;;;;12.00;6.50;;;;;;;16.93;100.00;97890.19;5051665;28;20700;-77
2022/06/02 01:17:47;;;;;;;11.40;5.72;;;;;;;16.88;100.00;97889.59;5051669;28;20033;-77
2022/06/02 01:21:01;;;;;;;9.00;5.15;;;;;;;16.92;100.00;97885.78;5046461;28;20099;-75
2022/06/02 01:23:56;;;;;;;9.40;5.88;;;;;;;16.78;100.00;97887.22;4968186;28;20408;-78
2022/06/02 01:26:24;;;;;;;13.13;5.72;;;;;;;16.88;100.00;97892.34;5031489;28;20033;-77
2022/06/02 01:28:58;;;;;;;9.20;5.90;;;;;;;16.77;100.00;97889.16;5031997;28;20028;-78
2022/06/02 01:31:33;;;;;;;10.02;5.57;;;;;;;16.71;100.00;97881.41;5030746;28;20025;-76
2022/06/02 01:34:36;;;;;;;8.90;5.50;;;;;;;16.66;100.00;97885.22;5019380;28;20040;-76
2022/06/02 01:37:04;;;;;;;9.70;5.18;;;;;;;16.63;100.00;97874.03;5031335;28;20042;-78
2022/06/02 01:39:38;;;;;;;10.48;5.40;;;;;;;16.60;100.00;97878.28;5015804;28;20022;-77
2022/06/02 01:42:19;;;;;;;10.55;6.05;;;;;;;16.51;100.00;97886.56;5009890;28;20073;-76
2022/06/02 01:44:56;;;;;;;10.02;5.95;;;;;;;16.48;100.00;97880.91;5011239;28;20030;-75
2022/06/02 01:47:38;;;;;;;9.05;5.93;;;;;;;16.46;100.00;97891.47;5011502;28;20025;-76
2022/06/02 01:50:35;;;;;;;9.57;6.32;;;;;;;16.38;100.00;97889.59;5013071;28;20038;-76
2022/06/02 01:53:33;;;;;;;8.85;5.95;;;;;;;16.18;100.00;97885.66;5030613;28;20063;-75
2022/06/02 01:56:16;;;;;;;8.75;5.80;;;;;;;16.10;100.00;97883.72;5030953;28;20021;-75
2022/06/02 01:59:01;;;;;;;9.13;6.15;;;;;;;16.00;100.00;97871.13;5030789;28;20018;-76
2022/06/02 02:01:38;;;;;;;10.20;6.03;;;;;;;16.09;100.00;97871.09;5029371;28;20083;-75
2022/06/02 02:04:12;;;;;;;10.95;6.60;;;;;;;16.02;100.00;97874.38;5029804;28;20476;-75
2022/06/02 02:07:03;;;;;;;9.57;6.35;;;;;;;15.94;100.00;97880.72;5029106;28;20104;-76
2022/06/02 02:09:28;;;;;;;8.80;6.13;;;;;;;16.07;100.00;97882.44;5029482;28;20501;-76
2022/06/02 02:11:56;;;;;;;10.95;6.00;;;;;;;16.01;100.00;97867.22;5030530;28;20034;-77
2022/06/02 02:14:28;;;;;;;9.02;6.18;;;;;;;16.04;100.00;97876.78;5045963;28;20049;-76
2022/06/02 02:17:22;;;;;;;10.15;6.00;;;;;;;15.97;100.00;97871.81;5035317;28;20025;-75
2022/06/02 02:20:06;;;;;;;11.00;6.53;;;;;;;15.96;100.00;97872.94;5043251;28;20056;-76
2022/06/02 02:22:57;;;;;;;9.40;6.60;;;;;;;15.93;100.00;97876.34;5050570;28;20037;-77
2022/06/02 02:25:28;;;;;;;10.00;6.03;;;;;;;15.85;100.00;97868.91;5050566;28;20025;-75
2022/06/02 02:28:12;;;;;;;8.85;6.60;;;;;;;15.81;100.00;97873.50;5037280;28;20068;-76
2022/06/02 02:30:43;;;;;;;10.35;6.68;;;;;;;15.86;100.00;97869.72;5029094;28;20042;-75
2022/06/02 02:33:29;;;;;;;8.60;5.97;;;;;;;15.86;100.00;97870.53;5029601;28;20709;-76
2022/06/02 02:36:20;;;;;;;15.48;6.40;;;;;;;15.91;100.00;97875.09;5030526;28;20029;-75
2022/06/02 02:38:48;;;;;;;13.85;7.47;;;;;;;15.94;100.00;97877.97;5012584;28;20045;-75
2022/06/02 02:41:33;;;;;;;15.50;7.63;;;;;;;15.90;100.00;97879.78;5048953;28;20021;-75
2022/06/02 02:44:25;;;;;;;10.07;7.65;;;;;;;15.85;100.00;97879.16;5036231;28;20036;-75
2022/06/02 02:46:58;;;;;;;14.60;7.55;;;;;;;15.82;100.00;97869.56;5050235;28;20074;-76
2022/06/02 02:49:42;;;;;;;12.95;7.35;;;;;;;15.81;100.00;97881.78;5037656;28;20022;-80
2022/06/02 02:52:16;;;;;;;9.77;6.53;;;;;;;15.81;100.00;97883.72;5030296;28;20029;-76
2022/06/02 02:54:59;;;;;;;10.43;6.40;;;;;;;15.76;100.00;97881.94;5029965;28;20033;-76
2022/06/02 02:57:49;;;;;;;11.15;7.03;;;;;;;15.74;100.00;97884.22;5030625;28;20438;-76
2022/06/02 03:00:29;;;;;;;12.30;6.95;;;;;;;15.77;100.00;97888.28;5013938;28;20040;-76
2022/06/02 03:03:04;;;;;;;12.25;6.85;;;;;;;15.69;100.00;97884.44;5050470;28;20029;-78
2022/06/02 03:06:02;;;;;;;12.68;7.10;;;;;;;15.52;100.00;97890.78;5050052;28;20115;-76
2022/06/02 03:08:46;;;;;;;12.25;6.38;;;;;;;15.53;100.00;97888.84;5046666;28;20135;-76
2022/06/02 03:11:26;;;;;;;9.35;6.50;;;;;;;15.49;100.00;97896.16;5049671;28;20037;-75
2022/06/02 03:14:03;;;;;;;10.32;5.68;;;;;;;15.57;100.00;97903.56;5048521;28;20142;-76
2022/06/02 03:16:31;;;;;;;10.25;5.78;;;;;;;15.59;100.00;97912.34;5049204;28;20115;-75
2022/06/02 03:19:03;;;;;;;11.77;6.85;;;;;;;15.57;100.00;97911.84;5051089;28;20132;-75
2022/06/02 03:21:54;;;;;;;11.43;7.70;;;;;;;15.47;100.00;97924.03;5052847;28;20067;-76
2022/06/02 03:24:46;;;;;;;11.40;7.32;;;;;;;15.58;100.00;97919.00;5046853;28;20474;-76
2022/06/02 03:27:35;;;;;;;9.18;6.50;;;;;;;15.77;100.00;97922.19;5053634;28;20037;-76
2022/06/02 03:30:13;;;;;;;9.32;7.03;;;;;;;16.02;100.00;97929.56;5046323;28;20111;-80
2022/06/02 03:33:04;;;;;;;10.57;6.88;;;;;;;16.32;100.00;97930.38;5038181;28;20280;-77
2022/06/02 03:35:29;;;;;;;13.63;6.65;;;;;;;16.56;100.00;97938.88;5038397;28;20436;-76
2022/06/02 03:38:13;;;;;;;9.07;6.00;;;;;;;16.76;100.00;97942.78;5052351;28;20120;-77
2022/06/02 03:41:10;;;;;;;11.77;6.20;;;;;;;17.02;100.00;97943.41;5054263;28;20033;-80
2022/06/02 03:43:54;;;;;;;10.70;6.00;;;;;;;17.47;100.00;97945.47;5053549;28;20113;-75
2022/06/02 03:46:43;;;;;;;12.18;6.18;;;;;;;17.98;100.00;97942.16;5057451;28;20033;-76
2022/06/02 03:49:36;;;;;;;9.45;5.95;;;;;;;18.75;100.00;97954.22;5036469;28;20044;-75
2022/06/02 03:52:23;;;;;;;8.65;6.35;;;;;;;19.18;100.00;97951.56;5033236;28;20132;-74
2022/06/02 03:55:08;;;;;;;12.60;5.45;;;;;;;19.78;96.57;97950.53;5033153;28;20048;-76
2022/06/02 03:57:58;;;;;;;11.27;6.32;;;;;;;20.25;91.69;97956.13;5033277;28;20025;-74
2022/06/02 04:00:27;;;;;;;8.50;5.78;;;;;;;20.65;88.41;97969.84;5032898;28;20183;-76
2022/06/02 04:02:52;;;;;;;11.88;5.43;;;;;;;19.81;96.13;97971.22;5032913;28;20087;-75
2022/06/02 04:05:59;;;;;;;12.00;6.55;;;;;;;19.96;95.60;97972.41;5031671;28;20029;-75
2022/06/02 04:08:30;;;;;;;9.90;6.63;;;;;;;19.27;100.00;97979.16;4998265;28;20048;-74
2022/06/02 04:11:10;;;;;;;13.23;6.15;;;;;;;18.98;100.00;97987.78;5053505;28;20036;-74
2022/06/02 04:13:50;;;;;;;12.88;7.35;;;;;;;19.08;100.00;97978.97;5038471;28;20505;-74
2022/06/02 04:16:50;;;;;;;14.55;7.20;;;;;;;18.74;100.00;97991.38;5051446;28;20048;-77
2022/06/02 04:22:24;;;;;;;8.90;7.30;;;;;;;19.67;100.00;97993.03;5032585;28;20064;-76
2022/06/02 04:25:25;;;;;;;11.07;7.32;;;;;;;19.13;100.00;97993.41;5032570;28;20449;-75
2022/06/02 04:28:14;;;;;;;12.68;7.43;;;;;;;18.73;100.00;97997.28;5032699;28;20040;-76
2022/06/02 04:31:04;;;;;;;10.88;6.55;;;;;;;18.39;100.00;97991.00;5040059;28;20044;-74
2022/06/02 04:33:35;;;;;;;9.82;6.95;;;;;;;18.20;100.00;97997.09;5052506;28;20875;-75
2022/06/02 04:36:16;;;;;;;8.43;6.65;;;;;;;18.40;100.00;97992.63;5049459;28;20092;-73
2022/06/02 04:38:54;;;;;;;11.82;6.70;;;;;;;18.42;100.00;97998.63;5040223;28;20039;-75
2022/06/02 04:41:48;;;;;;;16.38;7.47;;;;;;;17.89;100.00;98002.34;5032404;28;20025;-75
2022/06/02 04:44:40;;;;;;;11.93;6.65;;;;;;;17.87;100.00;98010.19;5037442;28;20383;-83
2022/06/02 04:47:18;;;;;;;12.20;7.00;;;;;;;17.81;100.00;98008.78;5045144;28;20030;-82
2022/06/02 04:49:59;;;;;;;14.23;7.15;;;;;;;17.91;100.00;98004.78;5053379;28;20020;-83
2022/06/02 04:52:43;;;;;;;9.48;6.57;;;;;;;18.21;100.00;98003.44;5063740;28;20051;-82
2022/06/02 04:55:21;;;;;;;11.50;6.82;;;;;;;18.44;100.00;98012.97;5051837;28;20025;-83
2022/06/02 04:58:04;;;;;;;11.15;7.18;;;;;;;18.33;100.00;98022.03;5045035;28;20021;-83
2022/06/02 05:00:59;;;;;;;9.80;6.63;;;;;;;18.28;100.00;98012.00;5061069;28;20044;-82
2022/06/02 05:04:05;;;;;;;9.50;6.68;;;;;;;18.50;100.00;98021.88;5044254;28;20055;-85
2022/06/02 05:06:42;;;;;;;9.57;6.47;;;;;;;18.39;100.00;98029.78;5059704;28;20482;-81
2022/06/02 05:09:35;;;;;;;9.80;7.32;;;;;;;17.96;100.00;98035.00;5057814;28;20025;-81
2022/06/02 05:12:10;;;;;;;12.43;6.90;;;;;;;18.03;100.00;98038.84;5037843;28;20124;-82
2022/06/02 05:15:20;;;;;;;12.65;7.03;;;;;;;18.53;100.00;98038.63;5032814;28;20390;-76
2022/06/02 05:17:45;;;;;;;10.73;5.95;;;;;;;18.86;100.00;98035.72;5032223;28;20060;-76
2022/06/02 05:20:22;;;;;;;9.60;6.70;;;;;;;18.99;100.00;98042.88;5013504;28;20049;-76
2022/06/02 05:22:55;;;;;;;11.73;6.90;;;;;;;19.06;100.00;98048.66;5031259;28;20285;-75
2022/06/02 05:25:45;;;;;;;8.20;6.43;;;;;;;19.18;100.00;98043.09;5031560;28;20052;-76
2022/06/02 05:28:47;;;;;;;8.52;5.78;;;;;;;19.24;100.00;98041.69;5013883;28;20086;-77
2022/06/02 05:31:33;;;;;;;9.80;6.50;;;;;;;19.26;100.00;98047.69;5029975;28;20938;-75
2022/06/02 05:34:01;;;;;;;;;;;;;;;19.35;100.00;98049.53;5032734;28;20021;-74
2022/06/02 05:36:46;;;;;;;10.77;6.88;;;;;;;19.49;99.03;98048.03;5031117;28;19917;-75
2022/06/02 05:39:21;;;;;;;12.15;7.03;;;;;;;19.92;96.81;98052.84;5046039;28;20481;-76
2022/06/02 05:42:08;;;;;;;12.70;6.87;;;;;;;19.98;96.14;98059.78;5048998;28;20059;-77
2022/06/02 05:44:48;;;;;;;10.13;6.88;;;;;;;20.33;94.69;98050.81;5050927;28;20032;-76
2022/06/02 05:47:27;;;;;;;10.32;7.93;;;;;;;20.43;93.53;98047.50;5051341;28;20021;-75
2022/06/02 05:50:16;;;;;;;11.65;6.25;;;;;;;20.54;90.90;98054.97;5036688;28;20040;-80
2022/06/02 05:52:53;;;;;;;13.35;6.60;;;;;;;20.60;91.69;98061.06;5052402;28;20037;-77
2022/06/02 05:55:38;;;;;;;14.48;6.53;;;;;;;20.92;91.18;98054.31;5030246;28;20076;-77
2022/06/02 05:58:22;;;;;;;12.93;6.23;;;;;;;20.92;90.70;98059.06;5032257;28;20025;-77
2022/06/02 06:01:15;;;;;;;9.80;6.60;;;;;;;20.49;90.81;98057.19;5037157;28;20029;-79
2022/06/02 06:04:15;;;;;;;9.98;6.50;;;;;;;20.36;92.03;98064.00;5030259;28;20794;-75
2022/06/02 06:06:54;;;;;;;10.93;7.40;;;;;;;20.66;92.27;98059.63;4979014;28;20041;-76
2022/06/02 06:09:38;;;;;;;13.40;7.88;;;;;;;20.53;92.76;98064.47;5030550;28;20028;-78
2022/06/02 06:12:40;;;;;;;15.27;8.52;;;;;;;21.21;87.95;98072.50;5030516;28;20032;-78
2022/06/02 06:15:26;;;;;;;11.98;7.55;;;;;;;21.62;84.88;98073.84;5030829;28;20036;-78
2022/06/02 06:17:51;;;;;;;16.15;8.02;;;;;;;21.87;83.53;98084.34;5030526;28;20026;-75
2022/06/02 06:20:33;;;;;;;14.45;7.30;;;;;;;21.52;84.83;98078.00;5030376;28;20057;-76
2022/06/02 06:23:37;;;;;;;12.13;7.18;;;;;;;21.78;85.26;98080.97;5030540;28;20044;-78
2022/06/02 06:26:21;;;;;;;14.35;7.72;;;;;;;22.26;82.05;98090.75;5029027;28;20032;-77
2022/06/02 06:29:31;;;;;;;14.50;7.38;;;;;;;22.09;81.81;98099.53;5030429;28;20500;-79
2022/06/02 06:32:21;;;;;;;15.65;6.63;;;;;;;22.27;80.05;98092.34;5030676;28;20483;-76
2022/06/02 06:34:49;;;;;;;15.35;7.53;;;;;;;22.34;79.82;98102.81;5029183;28;20045;-76
2022/06/02 06:37:39;;;;;;;10.95;7.05;;;;;;;22.08;81.25;98100.75;5030217;28;20061;-76
2022/06/02 06:40:38;;;;;;;13.63;8.02;;;;;;;22.22;80.18;98100.19;5030532;28;20028;-76
2022/06/02 06:43:41;;;;;;;11.18;7.05;;;;;;;22.04;79.82;98101.81;5029288;28;20029;-76
2022/06/02 06:46:24;;;;;;;10.75;6.40;;;;;;;22.77;77.10;98098.88;5012424;28;20110;-75
2022/06/02 06:48:54;;;;;;;11.50;6.05;;;;;;;22.62;77.22;98103.34;5013727;28;20542;-77
2022/06/02 06:51:44;;;;;;;9.57;5.35;;;;;;;23.05;73.88;98116.13;5031828;28;20104;-76
2022/06/02 06:54:28;;;;;;;6.82;5.43;;;;;;;23.03;74.14;98112.06;5033385;28;20554;-76
2022/06/02 06:56:59;;;;;;;13.63;5.97;;;;;;;23.06;73.60;98116.91;5034275;28;20079;-74
2022/06/02 06:59:40;;;;;;;11.60;6.47;;;;;;;22.88;76.10;98111.03;5034957;28;20128;-77
2022/06/02 07:02:20;;;;;;;11.93;6.30;;;;;;;23.21;73.54;98102.81;5034592;28;20540;-76
2022/06/02 07:05:14;;;;;;;10.15;5.75;;;;;;;23.36;72.81;98101.88;5033366;28;20060;-76
2022/06/02 07:07:53;;;;;;;12.52;5.88;;;;;;;23.23;73.11;98100.47;5034164;28;20033;-76
2022/06/02 07:10:34;;;;;;;9.50;6.70;;;;;;;23.17;73.58;98096.38;5034423;28;20025;-76
2022/06/02 07:13:14;;;;;;;10.40;6.15;;;;;;;23.36;72.35;98107.44;5033973;28;20057;-75
2022/06/02 07:15:51;;;;;;;13.13;5.68;;;;;;;23.38;71.86;98107.88;5034318;28;20026;-75
2022/06/02 07:18:18;;;;;;;13.07;6.70;;;;;;;23.58;73.23;98113.38;5034068;28;20025;-78
2022/06/02 07:20:54;;;;;;;9.35;6.05;;;;;;;23.70;70.22;98125.13;5034021;28;20053;-75
2022/06/02 07:23:57;;;;;;;8.40;5.40;;;;;;;23.75;70.98;98122.00;5016309;28;20022;-75
2022/06/02 07:26:28;;;;;;;9.20;5.93;;;;;;;23.74;70.67;98119.59;4972663;28;20038;-75
2022/06/02 07:29:09;;;;;;;11.93;6.10;;;;;;;24.36;69.38;98118.84;5010095;28;20048;-75
2022/06/02 07:32:11;;;;;;;10.20;4.70;;;;;;;24.67;67.78;98111.16;5032541;28;20041;-75
2022/06/02 07:34:45;;;;;;;10.80;5.20;;;;;;;24.32;70.45;98106.81;5010898;28;20113;-75
2022/06/02 07:37:54;;;;;;;10.00;5.03;;;;;;;24.33;70.09;98105.63;5033766;28;20025;-75
2022/06/02 07:40:29;;;;;;;11.70;5.57;;;;;;;24.34;72.17;98110.00;5015937;28;20034;-75
2022/06/02 07:43:25;;;;;;;11.50;4.80;;;;;;;24.58;68.86;98111.50;5033570;28;20033;-76
2022/06/02 07:46:02;;;;;;;9.48;5.72;;;;;;;25.12;67.26;98116.44;5033500;28;20109;-75
2022/06/02 07:48:40;;;;;;;10.40;5.07;;;;;;;25.75;65.63;98115.31;5032128;28;20117;-76
2022/06/02 07:51:46;;;;;;;8.75;5.35;;;;;;;25.95;63.44;98108.22;5033548;28;20105;-75
2022/06/02 07:54:29;;;;;;;12.57;5.18;;;;;;;26.01;61.61;98113.06;4972950;28;20031;-75
2022/06/02 07:57:07;;;;;;;9.55;4.97;;;;;;;26.03;63.25;98115.47;5037708;28;20127;-78
2022/06/02 07:59:49;;;;;;;10.75;6.10;;;;;;;26.11;59.84;98119.91;5037746;28;20497;-75
2022/06/02 08:02:44;;;;;;;11.77;5.35;;;;;;;28.18;53.75;98123.34;5033166;28;20029;-74
2022/06/02 08:05:27;;;;;;;8.48;4.43;;;;;;;27.78;53.73;98119.00;5035039;28;20036;-76
2022/06/02 08:07:55;;;;;;;7.57;4.93;;;;;;;30.06;48.17;98131.28;5038481;28;20029;-76
2022/06/02 08:10:52;;;;;;;8.85;4.45;;;;;;;29.93;48.30;98128.19;5036821;28;20025;-75
2022/06/02 08:13:27;;;;;;;9.70;5.40;;;;;;;30.69;46.16;98124.88;5043919;28;20037;-74
2022/06/02 08:16:16;;;;;;;8.30;4.57;;;;;;;30.02;47.36;98122.84;5041147;28;20029;-75
2022/06/02 08:19:03;;;;;;;12.05;4.72;;;;;;;31.27;43.75;98134.09;5037609;28;20021;-75
2022/06/02 08:21:41;;;;;;;10.60;4.75;;;;;;;31.09;43.78;98131.56;5033023;28;20110;-74
2022/06/02 08:24:44;;;;;;;7.80;4.15;;;;;;;29.78;46.94;98123.88;5032931;28;20041;-74
2022/06/02 08:27:41;;;;;;;8.30;4.88;;;;;;;31.28;43.14;98130.84;5039732;28;20550;-72
2022/06/02 08:30:23;;;;;;;9.77;4.63;;;;;;;33.43;39.01;98130.56;5041756;28;20424;-74
2022/06/02 08:33:03;;;;;;;8.80;4.00;;;;;;;30.86;40.91;98127.84;5041663;28;20025;-74
2022/06/02 08:36:07;;;;;;;5.68;3.85;;;;;;;32.72;38.73;98120.88;5046795;28;20060;-74
2022/06/02 08:38:50;;;;;;;9.45;4.63;;;;;;;32.93;38.26;98116.75;4962657;28;20441;-76
2022/06/02 08:41:33;;;;;;;6.93;4.50;;;;;;;33.15;37.92;98125.59;4961742;28;20043;-76
2022/06/02 08:44:02;;;;;;;8.80;4.38;;;;;;;33.52;36.57;98130.72;5012035;28;20048;-75
2022/06/02 08:46:45;;;;;;;6.55;4.05;;;;;;;33.46;36.75;98134.56;5050397;28;20036;-74
2022/06/02 08:49:39;;;;;;;12.98;4.63;;;;;;;32.73;38.46;98124.53;5051051;28;20025;-75
2022/06/02 08:52:10;;;;;;;10.07;4.90;;;;;;;32.56;38.77;98131.31;5033059;28;20402;-77
2022/06/02 08:55:15;;;;;;;11.32;4.40;;;;;;;32.56;39.53;98126.50;5049562;28;20032;-78
2022/06/02 08:57:59;;;;;;;10.05;4.70;;;;;;;32.67;38.78;98124.22;5033513;28;20094;-76
2022/06/02 09:01:01;;;;;;;5.68;4.35;;;;;;;33.71;36.61;98121.34;5063012;28;20136;-79
2022/06/02 09:04:04;;;;;;;9.88;4.45;;;;;;;33.66;37.08;98124.75;5038877;28;20115;-77
2022/06/02 09:07:00;;;;;;;11.32;4.82;;;;;;;33.39;37.76;98121.34;5032789;28;20460;-77
2022/06/02 09:09:57;;;;;;;6.45;4.10;;;;;;;33.37;37.38;98127.47;5032936;28;20640;-78
2022/06/02 09:13:00;;;;;;;7.20;4.90;;;;;;;33.58;37.09;98122.50;5032981;28;20022;-78
2022/06/02 09:15:44;;;;;;;7.97;4.53;;;;;;;32.86;38.65;98120.53;5049561;28;20434;-77
2022/06/02 09:18:12;;;;;;;6.28;4.55;;;;;;;32.91;38.52;98116.41;5066048;28;20033;-77
2022/06/02 09:21:08;;;;;;;8.70;5.10;;;;;;;32.29;38.63;98120.16;5051110;28;20051;-76
2022/06/02 09:23:36;;;;;;;10.75;5.07;;;;;;;33.69;36.82;98120.19;5046790;28;20025;-77
2022/06/02 09:26:24;;;;;;;7.07;5.25;;;;;;;33.59;36.99;98119.22;5050159;28;20063;-77
2022/06/02 09:29:09;;;;;;;9.40;5.28;;;;;;;33.34;37.55;98125.50;5049973;28;20488;-77
2022/06/02 09:31:40;;;;;;;12.73;5.55;;;;;;;33.01;39.05;98126.69;5049985;28;21433;-76
2022/06/02 09:34:24;;;;;;;10.82;5.85;;;;;;;33.06;38.35;98131.03;5050336;28;20068;-79
2022/06/02 09:37:08;;;;;;;9.93;5.90;;;;;;;33.76;36.60;98120.81;5049961;28;20091;-78
2022/06/02 09:39:55;;;;;;;8.67;6.20;;;;;;;31.52;41.50;98119.56;5049867;28;20040;-78
2022/06/02 09:42:45;;;;;;;8.98;5.93;;;;;;;30.78;42.26;98116.66;5035369;28;20556;-72
2022/06/02 09:45:32;;;;;;;10.73;5.00;;;;;;;32.65;39.58;98121.03;5051106;28;20044;-72
2022/06/02 09:48:04;;;;;;;9.20;5.70;;;;;;;31.72;41.45;98123.25;5050210;28;20029;-72
2022/06/02 09:50:47;;;;;;;8.48;5.72;;;;;;;30.71;43.87;98121.59;5050572;28;20025;-72
2022/06/02 09:53:15;;;;;;;8.27;6.10;;;;;;;29.68;45.42;98117.13;5051070;28;20063;-73
2022/06/02 09:56:16;;;;;;;8.82;6.40;;;;;;;30.67;43.46;98110.34;5050919;28;20041;-73
2022/06/02 09:58:41;;;;;;;9.38;6.82;;;;;;;30.92;42.32;98114.84;5054177;28;20033;-78
2022/06/02 10:01:26;;;;;;;12.73;5.22;;;;;;;31.00;42.61;98119.19;5051049;28;20079;-74
2022/06/02 10:04:18;;;;;;;8.40;5.60;;;;;;;32.53;38.74;98113.19;5055210;28;20037;-74
2022/06/02 10:06:52;;;;;;;11.88;6.00;;;;;;;32.85;37.88;98104.78;5043581;28;20064;-75
2022/06/02 10:09:27;;;;;;;;;;;;;;;32.18;38.77;98111.06;5052202;28;20110;-72
2022/06/02 10:15:40;;;;;;;8.18;6.22;;;;;;;32.27;38.99;98099.97;5050707;28;20043;-74
2022/06/02 10:18:05;;;;;;;9.07;6.07;;;;;;;31.27;41.25;98108.66;5049419;28;20175;-73
2022/06/02 10:21:04;;;;;;;7.77;6.03;;;;;;;31.55;41.21;98102.53;5048963;28;20574;-74
2022/06/02 10:23:48;;;;;;;11.55;6.18;;;;;;;30.78;42.83;98091.22;5050777;28;20028;-72
2022/06/02 10:26:23;;;;;;;10.57;6.17;;;;;;;31.39;41.93;98093.13;5051165;28;20029;-73
2022/06/02 10:28:57;;;;;;;20.23;5.70;;;;;;;31.34;41.51;98091.56;5050230;28;20108;-73
2022/06/02 10:31:56;;;;;;;9.82;5.43;;;;;;;30.45;44.63;98085.66;5050459;28;20116;-72
2022/06/02 10:34:46;;;;;;;13.48;6.07;;;;;;;29.40;46.48;98077.13;5033542;28;20068;-71
2022/06/02 10:37:42;;;;;;;8.45;6.28;;;;;;;27.98;50.49;98077.16;5043047;28;20124;-72
2022/06/02 10:40:12;;;;;;;10.63;6.47;;;;;;;28.04;50.83;98069.88;5030466;28;20029;-71
2022/06/02 10:42:55;;;;;;;7.55;5.95;;;;;;;27.45;51.96;98055.59;5033169;28;20040;-70
2022/06/02 10:46:00;;;;;;;8.63;5.60;;;;;;;27.29;53.03;98074.88;5044905;28;20059;-71
2022/06/02 10:48:37;;;;;;;8.38;6.18;;;;;;;26.88;53.91;98068.03;5050022;28;20038;-71
2022/06/02 10:51:39;;;;;;;9.00;6.30;;;;;;;26.88;53.57;98066.03;5043130;28;20086;-71
2022/06/02 10:54:38;;;;;;;10.35;6.28;;;;;;;26.92;54.15;98071.66;5049548;28;20045;-71
2022/06/02 10:57:28;;;;;;;9.18;6.00;;;;;;;27.37;53.27;98053.19;5039614;28;20505;-73
2022/06/02 11:00:03;;;;;;;9.98;5.90;;;;;;;28.06;51.11;98067.50;5048451;28;20043;-73
2022/06/02 11:03:02;;;;;;;7.75;5.95;;;;;;;27.28;53.28;98064.84;5050201;28;20029;-74
2022/06/02 11:05:59;;;;;;;9.55;5.97;;;;;;;27.57;52.67;98057.97;5050273;28;20067;-70
2022/06/02 11:08:51;;;;;;;8.30;5.63;;;;;;;27.95;51.48;98066.72;5045023;28;20764;-70
2022/06/02 11:12:07;;;;;;;11.65;6.00;;;;;;;28.10;51.24;98057.84;5030126;28;20508;-72
2022/06/02 11:15:04;;;;;;;13.75;5.68;;;;;;;27.91;51.23;98054.69;5030164;28;20026;-72
2022/06/02 11:17:51;;;;;;;11.35;4.95;;;;;;;28.00;51.03;98052.25;5059429;28;20032;-72
2022/06/02 11:20:42;;;;;;;7.70;5.38;;;;;;;29.16;48.13;98053.56;5040924;28;20048;-71
2022/06/02 11:23:45;;;;;;;8.65;4.75;;;;;;;28.75;48.74;98052.69;5049888;28;20029;-72
2022/06/02 11:26:34;;;;;;;11.00;5.22;;;;;;;28.74;48.20;98040.59;5048602;28;20032;-72
2022/06/02 11:29:08;;;;;;;11.07;4.90;;;;;;;27.95;49.84;98045.00;5020675;28;20371;-72
2022/06/02 11:31:52;;;;;;;9.07;4.90;;;;;;;28.85;47.60;98037.72;5049598;28;20044;-72
2022/06/02 11:34:28;;;;;;;6.88;4.50;;;;;;;28.83;47.56;98040.13;5049785;28;20090;-73
2022/06/02 11:37:06;;;;;;;11.80;5.53;;;;;;;28.44;48.81;98038.38;5037881;28;20029;-74
2022/06/02 11:39:37;;;;;;;10.15;4.47;;;;;;;28.52;49.54;98027.84;5030420;28;20021;-73
2022/06/02 11:42:12;;;;;;;7.03;4.28;;;;;;;28.33;49.46;98020.75;5028884;28;20025;-74
2022/06/02 11:44:56;;;;;;;8.43;4.50;;;;;;;29.02;48.19;98023.47;5037082;28;20029;-74
2022/06/02 11:47:42;;;;;;;9.57;4.82;;;;;;;28.60;48.40;98023.78;5041531;28;20023;-74
2022/06/02 11:50:32;;;;;;;8.07;4.78;;;;;;;28.65;47.97;98010.09;5042456;28;20030;-73
2022/06/02 11:53:06;;;;;;;8.40;4.60;;;;;;;28.84;48.29;98005.13;5041308;28;20061;-72
2022/06/02 11:55:53;;;;;;;10.30;4.73;;;;;;;29.19;47.66;98010.44;5047350;28;20548;-73
2022/06/02 11:58:33;;;;;;;8.00;4.95;;;;;;;28.03;50.42;98007.22;5047301;28;20029;-73
2022/06/02 12:01:37;;;;;;;11.27;5.68;;;;;;;28.49;48.21;98006.97;5041479;28;20098;-71
2022/06/02 12:04:21;;;;;;;5.90;4.60;;;;;;;27.98;49.87;98013.25;5042878;28;20428;-74
2022/06/02 12:06:58;;;;;;;7.90;5.15;;;;;;;27.23;51.36;98006.22;5038351;28;20063;-74
2022/06/02 12:09:45;;;;;;;7.70;5.13;;;;;;;27.67;50.75;97995.31;5044640;28;20036;-73
2022/06/02 12:12:41;;;;;;;7.15;5.00;;;;;;;28.25;49.43;98002.31;5053003;28;20029;-73
2022/06/02 12:15:37;;;;;;;7.38;4.68;;;;;;;28.04;49.89;98000.34;5011478;28;20041;-71
2022/06/02 12:18:04;;;;;;;9.63;5.00;;;;;;;28.33;49.36;97995.41;5040941;28;20029;-71
2022/06/02 12:20:49;;;;;;;13.18;6.30;;;;;;;28.31;49.97;97992.22;5046271;28;20069;-72
2022/06/02 12:23:35;;;;;;;9.02;5.03;;;;;;;27.98;51.21;97987.13;5051014;28;20037;-71
2022/06/02 12:26:33;;;;;;;8.23;5.03;;;;;;;27.94;51.07;97994.81;5047963;28;20029;-73
2022/06/02 12:29:23;;;;;;;7.82;4.70;;;;;;;28.19;50.92;97992.69;4999144;28;20041;-73
2022/06/02 12:32:13;;;;;;;6.97;4.95;;;;;;;28.23;50.13;97987.81;5049913;28;20478;-74
2022/06/02 12:35:04;;;;;;;7.32;4.97;;;;;;;27.81;50.20;97976.78;5031360;28;20033;-73
2022/06/02 12:37:50;;;;;;;6.00;4.53;;;;;;;27.38;52.65;97982.50;5031914;28;20413;-73
2022/06/02 12:40:48;;;;;;;11.82;5.53;;;;;;;27.31;53.01;97981.75;5032411;28;20037;-75
2022/06/02 12:43:29;;;;;;;7.30;4.95;;;;;;;27.32;53.39;97983.31;5027076;28;20048;-72
2022/06/02 12:46:21;;;;;;;9.10;4.45;;;;;;;27.92;52.03;97977.50;5031777;28;20494;-73
2022/06/02 12:49:07;;;;;;;8.18;5.22;;;;;;;27.87;52.50;97969.50;5002791;28;20037;-74
2022/06/02 12:51:38;;;;;;;7.18;4.78;;;;;;;28.23;51.66;97968.13;5044907;28;20029;-72
2022/06/02 12:54:41;;;;;;;9.00;4.82;;;;;;;27.89;52.30;97970.69;5036210;28;20049;-74
2022/06/02 12:57:27;;;;;;;7.22;4.78;;;;;;;27.51;53.82;97957.59;5041233;28;20077;-74